Stuttgart, Arkansas
Current Conditions -  °F | °C
As of 3:35 PM on Wednesday 26 Nov 2014 (Local Time) from KSGT Reporting Station
Clear Clear  
Wind Chill: 54°   Ceiling: Unl
Heat Index: 54°   Visibility: 10mi
Dew Point: 34°   Wind: 10mph
Humidity: 47%   Direction: 300°WNW
Pressure: 30.08"   Gusts: NA
Location:  34.5°N, 91.55°W
Report Text: KSGT 262135Z AUTO 30009KT 10SM CLR 12/01 A3008 RMK AO1
Loading
Personal Weather Stations






























Interactive Weather Map New forecast layout! Learn more

10-Day Weather Forecast

Advertisements
Track Severe Weather on mobile